This is the latest recevied weather packets stored in our database for station/object WA7CUG. If no packets are shown the sender has not sent any weather packets the latest 10 day(s).
| Time | Temp. | Humidity | Pressure | Rain* | Wind** | Luminosity | Snow |
|---|---|---|---|---|---|---|---|
| 1778074586 | 14.44° C | 66% | 1013.5 hPa | 0 mm | - | 44 W/m² | - |
| 1778074283 | 13.89° C | 66% | 1013.3 hPa | 0 mm | - | 38 W/m² | - |
| 1778073980 | 13.89° C | 67% | 1013.4 hPa | 0 mm | - | 35 W/m² | - |
| 1778073677 | 13.89° C | 67% | 1013.2 hPa | 0 mm | - | 31 W/m² | - |
| 1778073374 | 13.33° C | 67% | 1013 hPa | 0 mm | - | 27 W/m² | - |
| 1778073070 | 13.33° C | 68% | 1013 hPa | 0 mm | - | 24 W/m² | - |
| 1778072768 | 13.33° C | 68% | 1013.1 hPa | 0 mm | - | 20 W/m² | - |
| 1778072465 | 12.78° C | 69% | 1012.9 hPa | 0 mm | - | 17 W/m² | - |
| 1778072163 | 12.78° C | 69% | 1012.9 hPa | 0 mm | - | 14 W/m² | - |
| 1778071861 | 12.22° C | 71% | 1012.9 hPa | 0 mm | - | 11 W/m² | - |
| 1778071558 | 12.22° C | 72% | 1013 hPa | 0 mm | - | 9 W/m² | - |
| 1778071256 | 11.67° C | 73% | 1012.7 hPa | 0 mm | - | 6 W/m² | - |
| 1778070953 | 11.11° C | 75% | 1012.7 hPa | 0 mm | - | 4 W/m² | - |
| 1778070652 | 10.56° C | 77% | 1012.8 hPa | 0 mm | - | 3 W/m² | - |
| 1778070347 | 10.56° C | 77% | 1012.9 hPa | 0 mm | - | 2 W/m² | - |
| 1778070046 | 11.11° C | 76% | 1012.7 hPa | 0 mm | - | 1 W/m² | - |
| 1778069743 | 11.11° C | 76% | 1012.8 hPa | 0 mm | - | 0 W/m² | - |
| 1778069439 | 11.67° C | 74% | 1012.7 hPa | 0 mm | - | 0 W/m² | - |
| 1778069137 | 12.22° C | 73% | 1012.5 hPa | 0 mm | - | 0 W/m² | - |
| 1778068834 | 13.33° C | 67% | 1012.6 hPa | 0 mm | - | 0 W/m² | - |
| 1778068532 | 13.33° C | 67% | 1012.4 hPa | 0 mm | - | 0 W/m² | - |
| 1778068231 | 12.78° C | 69% | 1012.6 hPa | 0 mm | - | 0 W/m² | - |
| 1778067927 | 11.67° C | 74% | 1012.7 hPa | 0 mm | - | 0 W/m² | - |
| 1778067626 | 11.67° C | 76% | 1012.7 hPa | 0 mm | - | 0 W/m² | - |
| 1778067324 | 12.22° C | 73% | 1012.7 hPa | 0 mm | - | 0 W/m² | - |
* Rain latest hour (hover to see other rain measurements)
** Current wind speed in m/s (hover to see current wind gust speed)